sensor_id;sensor_type;location;lat;lon;timestamp;P1;durP1;ratioP1;P2;durP2;ratioP2
18997;SDS011;9632;51.018;4.284;2024-02-26T00:01:41;7.05;;;1.20;;
18997;SDS011;9632;51.018;4.284;2024-02-26T00:04:11;4.28;;;0.98;;
18997;SDS011;9632;51.018;4.284;2024-02-26T00:06:37;5.00;;;1.10;;
18997;SDS011;9632;51.018;4.284;2024-02-26T00:09:06;3.22;;;0.90;;
18997;SDS011;9632;51.018;4.284;2024-02-26T00:11:32;2.83;;;1.00;;
18997;SDS011;9632;51.018;4.284;2024-02-26T00:13:57;4.85;;;1.10;;
18997;SDS011;9632;51.018;4.284;2024-02-26T00:16:23;2.35;;;1.05;;
18997;SDS011;9632;51.018;4.284;2024-02-26T00:18:49;1.90;;;1.00;;
18997;SDS011;9632;51.018;4.284;2024-02-26T00:21:15;3.05;;;1.00;;
18997;SDS011;9632;51.018;4.284;2024-02-26T00:23:41;4.50;;;1.00;;
18997;SDS011;9632;51.018;4.284;2024-02-26T00:26:06;3.83;;;1.20;;
18997;SDS011;9632;51.018;4.284;2024-02-26T00:28:32;5.28;;;1.05;;
18997;SDS011;9632;51.018;4.284;2024-02-26T00:30:58;5.53;;;1.40;;
18997;SDS011;9632;51.018;4.284;2024-02-26T00:33:24;2.75;;;1.25;;
18997;SDS011;9632;51.018;4.284;2024-02-26T00:35:50;3.78;;;1.10;;
18997;SDS011;9632;51.018;4.284;2024-02-26T00:38:15;4.53;;;1.20;;
18997;SDS011;9632;51.018;4.284;2024-02-26T00:40:41;2.83;;;1.10;;
18997;SDS011;9632;51.018;4.284;2024-02-26T00:43:07;5.43;;;1.30;;
18997;SDS011;9632;51.018;4.284;2024-02-26T00:45:32;6.55;;;1.38;;
18997;SDS011;9632;51.018;4.284;2024-02-26T00:47:58;5.53;;;1.17;;
18997;SDS011;9632;51.018;4.284;2024-02-26T00:50:26;3.88;;;1.23;;
18997;SDS011;9632;51.018;4.284;2024-02-26T00:52:52;2.63;;;1.02;;
18997;SDS011;9632;51.018;4.284;2024-02-26T00:55:18;2.40;;;1.10;;
18997;SDS011;9632;51.018;4.284;2024-02-26T00:57:43;2.22;;;1.00;;
18997;SDS011;9632;51.018;4.284;2024-02-26T01:00:09;2.75;;;1.10;;
18997;SDS011;9632;51.018;4.284;2024-02-26T01:02:35;5.43;;;1.20;;
18997;SDS011;9632;51.018;4.284;2024-02-26T01:05:02;2.17;;;0.80;;
18997;SDS011;9632;51.018;4.284;2024-02-26T01:07:28;1.40;;;0.85;;
18997;SDS011;9632;51.018;4.284;2024-02-26T01:09:53;3.13;;;0.93;;
18997;SDS011;9632;51.018;4.284;2024-02-26T01:12:19;2.60;;;1.00;;
18997;SDS011;9632;51.018;4.284;2024-02-26T01:14:45;4.28;;;0.98;;
18997;SDS011;9632;51.018;4.284;2024-02-26T01:17:10;3.95;;;0.90;;
18997;SDS011;9632;51.018;4.284;2024-02-26T01:19:36;3.05;;;1.08;;
18997;SDS011;9632;51.018;4.284;2024-02-26T01:22:01;3.60;;;0.90;;
18997;SDS011;9632;51.018;4.284;2024-02-26T01:24:27;3.13;;;1.00;;
18997;SDS011;9632;51.018;4.284;2024-02-26T01:26:54;6.20;;;1.30;;
18997;SDS011;9632;51.018;4.284;2024-02-26T01:29:19;4.15;;;0.88;;
18997;SDS011;9632;51.018;4.284;2024-02-26T01:31:45;5.55;;;1.27;;
18997;SDS011;9632;51.018;4.284;2024-02-26T01:34:10;3.53;;;0.90;;
18997;SDS011;9632;51.018;4.284;2024-02-26T01:36:36;3.72;;;1.08;;
18997;SDS011;9632;51.018;4.284;2024-02-26T01:39:02;5.10;;;1.33;;
18997;SDS011;9632;51.018;4.284;2024-02-26T01:41:28;4.18;;;1.10;;
18997;SDS011;9632;51.018;4.284;2024-02-26T01:43:54;2.63;;;1.15;;
18997;SDS011;9632;51.018;4.284;2024-02-26T01:46:19;3.17;;;1.10;;
18997;SDS011;9632;51.018;4.284;2024-02-26T01:48:45;1.58;;;1.00;;
18997;SDS011;9632;51.018;4.284;2024-02-26T01:51:12;3.65;;;1.20;;
18997;SDS011;9632;51.018;4.284;2024-02-26T01:53:40;3.30;;;1.10;;
18997;SDS011;9632;51.018;4.284;2024-02-26T01:56:06;4.55;;;1.17;;
18997;SDS011;9632;51.018;4.284;2024-02-26T01:58:32;2.15;;;1.00;;
18997;SDS011;9632;51.018;4.284;2024-02-26T02:01:00;2.78;;;1.02;;
18997;SDS011;9632;51.018;4.284;2024-02-26T02:03:27;2.78;;;1.05;;
18997;SDS011;9632;51.018;4.284;2024-02-26T02:05:54;4.00;;;1.45;;
18997;SDS011;9632;51.018;4.284;2024-02-26T02:08:20;1.38;;;1.00;;
18997;SDS011;9632;51.018;4.284;2024-02-26T02:10:48;3.25;;;1.20;;
18997;SDS011;9632;51.018;4.284;2024-02-26T02:13:14;2.08;;;1.17;;
18997;SDS011;9632;51.018;4.284;2024-02-26T02:15:40;2.65;;;1.00;;
18997;SDS011;9632;51.018;4.284;2024-02-26T02:18:06;3.40;;;1.25;;
18997;SDS011;9632;51.018;4.284;2024-02-26T02:20:35;4.28;;;1.40;;
18997;SDS011;9632;51.018;4.284;2024-02-26T02:23:01;3.15;;;1.15;;
18997;SDS011;9632;51.018;4.284;2024-02-26T02:25:27;4.43;;;1.40;;
18997;SDS011;9632;51.018;4.284;2024-02-26T02:27:54;2.53;;;1.20;;
18997;SDS011;9632;51.018;4.284;2024-02-26T02:30:27;3.05;;;1.33;;
18997;SDS011;9632;51.018;4.284;2024-02-26T02:32:54;2.67;;;1.10;;
18997;SDS011;9632;51.018;4.284;2024-02-26T02:35:22;3.92;;;1.20;;
18997;SDS011;9632;51.018;4.284;2024-02-26T02:37:48;5.18;;;1.20;;
18997;SDS011;9632;51.018;4.284;2024-02-26T02:40:14;5.35;;;1.25;;
18997;SDS011;9632;51.018;4.284;2024-02-26T02:42:40;2.80;;;1.40;;
18997;SDS011;9632;51.018;4.284;2024-02-26T02:45:06;3.60;;;1.40;;
18997;SDS011;9632;51.018;4.284;2024-02-26T02:47:35;3.15;;;1.50;;
18997;SDS011;9632;51.018;4.284;2024-02-26T02:50:02;3.03;;;1.70;;
18997;SDS011;9632;51.018;4.284;2024-02-26T02:52:28;3.90;;;1.70;;
18997;SDS011;9632;51.018;4.284;2024-02-26T02:54:54;5.25;;;1.70;;
18997;SDS011;9632;51.018;4.284;2024-02-26T02:57:20;3.65;;;1.90;;
18997;SDS011;9632;51.018;4.284;2024-02-26T02:59:46;4.50;;;2.47;;
18997;SDS011;9632;51.018;4.284;2024-02-26T03:02:11;5.10;;;2.25;;
18997;SDS011;9632;51.018;4.284;2024-02-26T03:04:37;6.55;;;2.40;;
18997;SDS011;9632;51.018;4.284;2024-02-26T03:07:03;7.03;;;2.10;;
18997;SDS011;9632;51.018;4.284;2024-02-26T03:09:29;6.45;;;2.58;;
18997;SDS011;9632;51.018;4.284;2024-02-26T03:11:54;9.55;;;2.30;;
18997;SDS011;9632;51.018;4.284;2024-02-26T03:14:20;3.95;;;2.25;;
18997;SDS011;9632;51.018;4.284;2024-02-26T03:16:46;5.25;;;2.25;;
18997;SDS011;9632;51.018;4.284;2024-02-26T03:19:14;4.28;;;2.40;;
18997;SDS011;9632;51.018;4.284;2024-02-26T03:21:41;5.47;;;2.63;;
18997;SDS011;9632;51.018;4.284;2024-02-26T03:24:07;3.58;;;2.30;;
18997;SDS011;9632;51.018;4.284;2024-02-26T03:26:35;5.10;;;2.40;;
18997;SDS011;9632;51.018;4.284;2024-02-26T03:29:01;3.85;;;2.28;;
18997;SDS011;9632;51.018;4.284;2024-02-26T03:31:27;5.93;;;2.63;;
18997;SDS011;9632;51.018;4.284;2024-02-26T03:33:53;5.05;;;2.33;;
18997;SDS011;9632;51.018;4.284;2024-02-26T03:36:19;5.35;;;2.80;;
18997;SDS011;9632;51.018;4.284;2024-02-26T03:38:46;6.18;;;2.70;;
18997;SDS011;9632;51.018;4.284;2024-02-26T03:41:12;6.68;;;2.90;;
18997;SDS011;9632;51.018;4.284;2024-02-26T03:43:38;6.70;;;3.08;;
18997;SDS011;9632;51.018;4.284;2024-02-26T03:46:07;5.13;;;3.10;;
18997;SDS011;9632;51.018;4.284;2024-02-26T03:48:33;6.43;;;3.30;;
18997;SDS011;9632;51.018;4.284;2024-02-26T03:50:59;4.65;;;3.35;;
18997;SDS011;9632;51.018;4.284;2024-02-26T03:53:25;8.32;;;3.60;;
18997;SDS011;9632;51.018;4.284;2024-02-26T03:55:51;7.43;;;3.42;;
18997;SDS011;9632;51.018;4.284;2024-02-26T03:58:17;6.70;;;3.40;;
18997;SDS011;9632;51.018;4.284;2024-02-26T04:00:43;5.97;;;3.35;;
18997;SDS011;9632;51.018;4.284;2024-02-26T04:03:09;7.05;;;4.00;;
18997;SDS011;9632;51.018;4.284;2024-02-26T04:05:35;6.68;;;3.67;;
18997;SDS011;9632;51.018;4.284;2024-02-26T04:08:01;7.95;;;3.55;;
18997;SDS011;9632;51.018;4.284;2024-02-26T04:10:27;6.20;;;3.75;;
18997;SDS011;9632;51.018;4.284;2024-02-26T04:12:53;8.90;;;3.65;;
18997;SDS011;9632;51.018;4.284;2024-02-26T04:15:18;6.13;;;4.05;;
18997;SDS011;9632;51.018;4.284;2024-02-26T04:17:44;10.27;;;4.88;;
18997;SDS011;9632;51.018;4.284;2024-02-26T04:20:13;9.75;;;4.53;;
18997;SDS011;9632;51.018;4.284;2024-02-26T04:22:40;11.88;;;5.85;;
18997;SDS011;9632;51.018;4.284;2024-02-26T04:25:06;10.90;;;5.18;;
18997;SDS011;9632;51.018;4.284;2024-02-26T04:27:32;8.63;;;4.97;;
18997;SDS011;9632;51.018;4.284;2024-02-26T04:29:58;10.32;;;5.40;;
18997;SDS011;9632;51.018;4.284;2024-02-26T04:32:23;11.30;;;5.60;;
18997;SDS011;9632;51.018;4.284;2024-02-26T04:34:49;8.52;;;4.82;;
18997;SDS011;9632;51.018;4.284;2024-02-26T04:37:15;10.07;;;5.38;;
18997;SDS011;9632;51.018;4.284;2024-02-26T04:39:40;11.93;;;5.78;;
18997;SDS011;9632;51.018;4.284;2024-02-26T04:42:06;8.60;;;5.03;;
18997;SDS011;9632;51.018;4.284;2024-02-26T04:44:32;11.77;;;5.50;;
18997;SDS011;9632;51.018;4.284;2024-02-26T04:46:58;10.65;;;5.40;;
18997;SDS011;9632;51.018;4.284;2024-02-26T04:49:24;7.82;;;5.40;;
18997;SDS011;9632;51.018;4.284;2024-02-26T04:51:49;9.20;;;5.63;;
18997;SDS011;9632;51.018;4.284;2024-02-26T04:54:15;9.95;;;5.60;;
18997;SDS011;9632;51.018;4.284;2024-02-26T04:56:41;10.10;;;5.50;;
18997;SDS011;9632;51.018;4.284;2024-02-26T04:59:06;9.05;;;5.72;;
18997;SDS011;9632;51.018;4.284;2024-02-26T05:01:32;11.82;;;5.95;;
18997;SDS011;9632;51.018;4.284;2024-02-26T05:03:58;11.35;;;6.00;;
18997;SDS011;9632;51.018;4.284;2024-02-26T05:06:23;11.25;;;5.55;;
18997;SDS011;9632;51.018;4.284;2024-02-26T05:08:49;10.95;;;5.60;;
18997;SDS011;9632;51.018;4.284;2024-02-26T05:11:15;10.93;;;5.50;;
18997;SDS011;9632;51.018;4.284;2024-02-26T05:13:42;8.77;;;5.40;;
18997;SDS011;9632;51.018;4.284;2024-02-26T05:16:07;8.90;;;5.57;;
18997;SDS011;9632;51.018;4.284;2024-02-26T05:18:33;12.40;;;5.35;;
18997;SDS011;9632;51.018;4.284;2024-02-26T05:20:59;10.48;;;5.85;;
18997;SDS011;9632;51.018;4.284;2024-02-26T05:23:24;10.35;;;5.55;;
18997;SDS011;9632;51.018;4.284;2024-02-26T05:25:52;9.80;;;5.32;;
18997;SDS011;9632;51.018;4.284;2024-02-26T05:28:17;8.45;;;5.30;;
18997;SDS011;9632;51.018;4.284;2024-02-26T05:30:45;10.07;;;5.32;;
18997;SDS011;9632;51.018;4.284;2024-02-26T05:33:11;8.35;;;4.97;;
18997;SDS011;9632;51.018;4.284;2024-02-26T05:35:37;7.90;;;4.70;;
18997;SDS011;9632;51.018;4.284;2024-02-26T05:38:05;8.50;;;4.82;;
18997;SDS011;9632;51.018;4.284;2024-02-26T05:40:31;7.97;;;4.47;;
18997;SDS011;9632;51.018;4.284;2024-02-26T05:42:56;8.73;;;4.13;;
18997;SDS011;9632;51.018;4.284;2024-02-26T05:45:22;7.47;;;4.30;;
18997;SDS011;9632;51.018;4.284;2024-02-26T05:47:48;7.05;;;4.22;;
18997;SDS011;9632;51.018;4.284;2024-02-26T05:50:14;7.28;;;4.60;;
18997;SDS011;9632;51.018;4.284;2024-02-26T05:52:40;7.03;;;4.20;;
18997;SDS011;9632;51.018;4.284;2024-02-26T05:55:06;7.45;;;4.25;;
18997;SDS011;9632;51.018;4.284;2024-02-26T05:57:33;7.82;;;3.85;;
18997;SDS011;9632;51.018;4.284;2024-02-26T05:59:59;6.95;;;3.78;;
18997;SDS011;9632;51.018;4.284;2024-02-26T06:02:29;8.65;;;4.32;;
18997;SDS011;9632;51.018;4.284;2024-02-26T06:04:55;8.40;;;4.15;;
18997;SDS011;9632;51.018;4.284;2024-02-26T06:07:21;6.78;;;4.30;;
18997;SDS011;9632;51.018;4.284;2024-02-26T06:09:46;6.75;;;4.00;;
18997;SDS011;9632;51.018;4.284;2024-02-26T06:12:13;6.53;;;4.65;;
18997;SDS011;9632;51.018;4.284;2024-02-26T06:14:39;8.68;;;4.57;;
18997;SDS011;9632;51.018;4.284;2024-02-26T06:17:04;7.82;;;4.20;;
18997;SDS011;9632;51.018;4.284;2024-02-26T06:19:30;6.25;;;4.70;;
18997;SDS011;9632;51.018;4.284;2024-02-26T06:21:56;7.32;;;4.60;;
18997;SDS011;9632;51.018;4.284;2024-02-26T06:24:21;9.73;;;4.80;;
18997;SDS011;9632;51.018;4.284;2024-02-26T06:26:47;7.20;;;4.88;;
18997;SDS011;9632;51.018;4.284;2024-02-26T06:29:13;7.30;;;5.03;;
18997;SDS011;9632;51.018;4.284;2024-02-26T06:31:39;7.68;;;5.07;;
18997;SDS011;9632;51.018;4.284;2024-02-26T06:34:05;6.22;;;4.90;;
18997;SDS011;9632;51.018;4.284;2024-02-26T06:36:39;6.35;;;4.45;;
18997;SDS011;9632;51.018;4.284;2024-02-26T06:39:04;7.97;;;4.68;;
18997;SDS011;9632;51.018;4.284;2024-02-26T06:41:30;7.78;;;4.75;;
18997;SDS011;9632;51.018;4.284;2024-02-26T06:44:05;8.80;;;4.85;;
18997;SDS011;9632;51.018;4.284;2024-02-26T06:46:34;8.95;;;5.82;;
18997;SDS011;9632;51.018;4.284;2024-02-26T06:48:59;7.65;;;5.00;;
18997;SDS011;9632;51.018;4.284;2024-02-26T06:51:25;9.15;;;5.40;;
18997;SDS011;9632;51.018;4.284;2024-02-26T06:53:51;10.10;;;6.20;;
18997;SDS011;9632;51.018;4.284;2024-02-26T06:56:16;9.93;;;5.57;;
18997;SDS011;9632;51.018;4.284;2024-02-26T06:59:00;10.23;;;5.90;;
18997;SDS011;9632;51.018;4.284;2024-02-26T07:01:26;12.18;;;6.43;;
18997;SDS011;9632;51.018;4.284;2024-02-26T07:03:52;7.88;;;5.82;;
18997;SDS011;9632;51.018;4.284;2024-02-26T07:06:17;10.30;;;6.13;;
18997;SDS011;9632;51.018;4.284;2024-02-26T07:08:52;9.90;;;5.93;;
18997;SDS011;9632;51.018;4.284;2024-02-26T07:11:18;11.30;;;5.75;;
18997;SDS011;9632;51.018;4.284;2024-02-26T07:13:45;11.52;;;6.07;;
18997;SDS011;9632;51.018;4.284;2024-02-26T07:16:11;9.25;;;6.18;;
18997;SDS011;9632;51.018;4.284;2024-02-26T07:18:37;8.70;;;5.63;;
18997;SDS011;9632;51.018;4.284;2024-02-26T07:21:05;12.77;;;7.13;;
18997;SDS011;9632;51.018;4.284;2024-02-26T07:23:31;9.63;;;6.10;;
18997;SDS011;9632;51.018;4.284;2024-02-26T07:25:57;9.77;;;5.80;;
18997;SDS011;9632;51.018;4.284;2024-02-26T07:28:24;10.90;;;5.45;;
18997;SDS011;9632;51.018;4.284;2024-02-26T07:30:50;9.43;;;6.15;;
18997;SDS011;9632;51.018;4.284;2024-02-26T07:33:15;8.10;;;5.35;;
18997;SDS011;9632;51.018;4.284;2024-02-26T07:35:41;7.78;;;4.85;;
18997;SDS011;9632;51.018;4.284;2024-02-26T07:38:07;7.75;;;5.20;;
18997;SDS011;9632;51.018;4.284;2024-02-26T07:40:33;11.00;;;5.70;;
18997;SDS011;9632;51.018;4.284;2024-02-26T07:42:58;8.05;;;5.53;;
18997;SDS011;9632;51.018;4.284;2024-02-26T07:45:24;11.93;;;6.05;;
18997;SDS011;9632;51.018;4.284;2024-02-26T07:47:49;10.38;;;5.38;;
18997;SDS011;9632;51.018;4.284;2024-02-26T07:50:16;9.50;;;5.72;;
18997;SDS011;9632;51.018;4.284;2024-02-26T07:52:42;8.88;;;6.07;;
18997;SDS011;9632;51.018;4.284;2024-02-26T07:55:09;8.52;;;5.75;;
18997;SDS011;9632;51.018;4.284;2024-02-26T07:57:35;7.47;;;5.30;;
18997;SDS011;9632;51.018;4.284;2024-02-26T08:00:02;8.32;;;5.38;;
18997;SDS011;9632;51.018;4.284;2024-02-26T08:02:28;10.45;;;6.35;;
18997;SDS011;9632;51.018;4.284;2024-02-26T08:04:54;10.30;;;6.82;;
18997;SDS011;9632;51.018;4.284;2024-02-26T08:07:20;10.60;;;7.05;;
18997;SDS011;9632;51.018;4.284;2024-02-26T08:09:46;12.55;;;6.13;;
18997;SDS011;9632;51.018;4.284;2024-02-26T08:12:12;8.65;;;5.47;;
18997;SDS011;9632;51.018;4.284;2024-02-26T08:14:38;9.32;;;6.38;;
18997;SDS011;9632;51.018;4.284;2024-02-26T08:17:04;12.30;;;5.85;;
18997;SDS011;9632;51.018;4.284;2024-02-26T08:19:30;9.45;;;5.78;;
18997;SDS011;9632;51.018;4.284;2024-02-26T08:21:55;8.18;;;5.18;;
18997;SDS011;9632;51.018;4.284;2024-02-26T08:24:22;10.02;;;5.25;;
18997;SDS011;9632;51.018;4.284;2024-02-26T08:26:48;10.55;;;6.50;;
18997;SDS011;9632;51.018;4.284;2024-02-26T08:29:13;8.20;;;5.32;;
18997;SDS011;9632;51.018;4.284;2024-02-26T08:31:39;9.40;;;5.72;;
18997;SDS011;9632;51.018;4.284;2024-02-26T08:40:31;7.97;;;4.63;;
18997;SDS011;9632;51.018;4.284;2024-02-26T08:42:56;6.63;;;4.72;;
18997;SDS011;9632;51.018;4.284;2024-02-26T08:45:22;9.23;;;4.93;;
18997;SDS011;9632;51.018;4.284;2024-02-26T08:47:48;8.02;;;5.45;;
18997;SDS011;9632;51.018;4.284;2024-02-26T08:50:14;6.38;;;4.82;;
18997;SDS011;9632;51.018;4.284;2024-02-26T08:52:40;9.00;;;5.63;;
18997;SDS011;9632;51.018;4.284;2024-02-26T08:55:07;7.43;;;5.20;;
18997;SDS011;9632;51.018;4.284;2024-02-26T08:57:34;8.07;;;5.32;;
18997;SDS011;9632;51.018;4.284;2024-02-26T09:00:00;8.30;;;5.78;;
18997;SDS011;9632;51.018;4.284;2024-02-26T09:02:26;9.45;;;5.57;;
18997;SDS011;9632;51.018;4.284;2024-02-26T09:04:52;9.13;;;5.95;;
18997;SDS011;9632;51.018;4.284;2024-02-26T09:07:20;11.40;;;6.13;;
18997;SDS011;9632;51.018;4.284;2024-02-26T09:09:46;12.13;;;6.65;;
18997;SDS011;9632;51.018;4.284;2024-02-26T09:12:12;10.43;;;6.07;;
18997;SDS011;9632;51.018;4.284;2024-02-26T09:14:37;8.77;;;5.35;;
18997;SDS011;9632;51.018;4.284;2024-02-26T09:17:03;6.97;;;5.20;;
18997;SDS011;9632;51.018;4.284;2024-02-26T09:19:29;8.80;;;6.13;;
18997;SDS011;9632;51.018;4.284;2024-02-26T09:21:54;9.70;;;5.25;;
18997;SDS011;9632;51.018;4.284;2024-02-26T09:24:22;8.05;;;5.25;;
18997;SDS011;9632;51.018;4.284;2024-02-26T09:26:49;8.95;;;6.00;;
18997;SDS011;9632;51.018;4.284;2024-02-26T09:29:14;9.00;;;5.50;;
18997;SDS011;9632;51.018;4.284;2024-02-26T09:31:40;9.13;;;5.45;;
18997;SDS011;9632;51.018;4.284;2024-02-26T09:34:06;7.88;;;5.32;;
18997;SDS011;9632;51.018;4.284;2024-02-26T09:36:33;8.13;;;5.43;;
18997;SDS011;9632;51.018;4.284;2024-02-26T09:38:59;7.20;;;5.22;;
18997;SDS011;9632;51.018;4.284;2024-02-26T09:41:25;6.75;;;4.88;;
18997;SDS011;9632;51.018;4.284;2024-02-26T09:43:55;6.75;;;4.38;;
18997;SDS011;9632;51.018;4.284;2024-02-26T09:46:22;8.13;;;4.82;;
18997;SDS011;9632;51.018;4.284;2024-02-26T09:48:49;6.60;;;4.60;;
18997;SDS011;9632;51.018;4.284;2024-02-26T09:51:14;7.85;;;4.93;;
18997;SDS011;9632;51.018;4.284;2024-02-26T09:53:42;7.57;;;4.93;;
18997;SDS011;9632;51.018;4.284;2024-02-26T09:56:11;7.00;;;5.05;;
18997;SDS011;9632;51.018;4.284;2024-02-26T09:58:38;6.93;;;4.50;;
18997;SDS011;9632;51.018;4.284;2024-02-26T10:01:09;7.78;;;4.80;;
18997;SDS011;9632;51.018;4.284;2024-02-26T10:03:38;6.35;;;4.60;;
18997;SDS011;9632;51.018;4.284;2024-02-26T10:06:07;6.38;;;4.13;;
18997;SDS011;9632;51.018;4.284;2024-02-26T10:08:36;6.13;;;4.60;;
18997;SDS011;9632;51.018;4.284;2024-02-26T10:11:04;6.72;;;4.72;;
18997;SDS011;9632;51.018;4.284;2024-02-26T10:13:31;9.93;;;4.93;;
18997;SDS011;9632;51.018;4.284;2024-02-26T10:15:57;6.57;;;4.57;;
18997;SDS011;9632;51.018;4.284;2024-02-26T10:18:23;7.47;;;5.13;;
18997;SDS011;9632;51.018;4.284;2024-02-26T10:20:59;7.18;;;4.95;;
18997;SDS011;9632;51.018;4.284;2024-02-26T10:23:28;6.53;;;4.70;;
18997;SDS011;9632;51.018;4.284;2024-02-26T10:25:54;5.95;;;4.57;;
18997;SDS011;9632;51.018;4.284;2024-02-26T10:28:20;6.60;;;4.65;;
18997;SDS011;9632;51.018;4.284;2024-02-26T10:30:46;7.03;;;4.60;;
18997;SDS011;9632;51.018;4.284;2024-02-26T10:33:12;8.63;;;4.22;;
18997;SDS011;9632;51.018;4.284;2024-02-26T10:35:47;6.63;;;4.50;;
18997;SDS011;9632;51.018;4.284;2024-02-26T10:38:13;6.93;;;4.72;;
18997;SDS011;9632;51.018;4.284;2024-02-26T10:40:41;7.45;;;4.45;;
18997;SDS011;9632;51.018;4.284;2024-02-26T10:43:07;9.77;;;5.03;;
18997;SDS011;9632;51.018;4.284;2024-02-26T10:45:33;6.88;;;4.63;;
18997;SDS011;9632;51.018;4.284;2024-02-26T10:48:00;7.80;;;4.50;;
18997;SDS011;9632;51.018;4.284;2024-02-26T10:50:25;8.02;;;4.30;;
18997;SDS011;9632;51.018;4.284;2024-02-26T10:52:51;8.70;;;4.65;;
18997;SDS011;9632;51.018;4.284;2024-02-26T10:55:20;6.15;;;4.13;;
18997;SDS011;9632;51.018;4.284;2024-02-26T10:57:47;7.80;;;4.43;;
18997;SDS011;9632;51.018;4.284;2024-02-26T11:00:15;8.27;;;5.07;;
18997;SDS011;9632;51.018;4.284;2024-02-26T11:02:41;6.57;;;4.70;;
18997;SDS011;9632;51.018;4.284;2024-02-26T11:05:09;7.03;;;4.70;;
18997;SDS011;9632;51.018;4.284;2024-02-26T11:07:37;7.20;;;4.72;;
18997;SDS011;9632;51.018;4.284;2024-02-26T11:10:03;7.20;;;4.70;;
18997;SDS011;9632;51.018;4.284;2024-02-26T11:12:31;6.00;;;4.32;;
18997;SDS011;9632;51.018;4.284;2024-02-26T11:14:57;7.03;;;4.70;;
18997;SDS011;9632;51.018;4.284;2024-02-26T11:17:26;8.43;;;4.88;;
18997;SDS011;9632;51.018;4.284;2024-02-26T11:19:56;6.93;;;4.70;;
18997;SDS011;9632;51.018;4.284;2024-02-26T11:22:24;8.52;;;4.50;;
18997;SDS011;9632;51.018;4.284;2024-02-26T11:24:53;8.13;;;4.38;;
18997;SDS011;9632;51.018;4.284;2024-02-26T11:27:23;7.22;;;4.60;;
18997;SDS011;9632;51.018;4.284;2024-02-26T11:29:52;6.47;;;4.45;;
18997;SDS011;9632;51.018;4.284;2024-02-26T11:32:19;7.53;;;4.85;;
18997;SDS011;9632;51.018;4.284;2024-02-26T11:34:44;6.53;;;4.40;;
18997;SDS011;9632;51.018;4.284;2024-02-26T11:37:14;7.13;;;4.30;;
18997;SDS011;9632;51.018;4.284;2024-02-26T11:39:41;6.53;;;4.00;;
18997;SDS011;9632;51.018;4.284;2024-02-26T11:42:08;6.53;;;3.88;;
18997;SDS011;9632;51.018;4.284;2024-02-26T11:44:35;6.72;;;4.43;;
18997;SDS011;9632;51.018;4.284;2024-02-26T11:47:12;6.75;;;4.22;;
18997;SDS011;9632;51.018;4.284;2024-02-26T11:49:42;9.60;;;4.55;;
18997;SDS011;9632;51.018;4.284;2024-02-26T11:52:08;6.47;;;4.10;;
18997;SDS011;9632;51.018;4.284;2024-02-26T11:54:47;6.82;;;3.90;;
18997;SDS011;9632;51.018;4.284;2024-02-26T11:57:23;7.32;;;4.55;;
18997;SDS011;9632;51.018;4.284;2024-02-26T11:59:53;6.68;;;4.00;;
18997;SDS011;9632;51.018;4.284;2024-02-26T12:05:09;6.30;;;3.78;;
18997;SDS011;9632;51.018;4.284;2024-02-26T12:07:37;5.53;;;3.80;;
18997;SDS011;9632;51.018;4.284;2024-02-26T12:13:09;5.45;;;3.40;;
18997;SDS011;9632;51.018;4.284;2024-02-26T12:18:07;5.68;;;3.50;;
18997;SDS011;9632;51.018;4.284;2024-02-26T12:20:38;4.57;;;3.17;;
18997;SDS011;9632;51.018;4.284;2024-02-26T12:23:08;7.25;;;4.10;;
18997;SDS011;9632;51.018;4.284;2024-02-26T12:25:39;8.02;;;4.55;;
18997;SDS011;9632;51.018;4.284;2024-02-26T12:28:05;7.03;;;3.85;;
18997;SDS011;9632;51.018;4.284;2024-02-26T12:30:32;7.75;;;4.93;;
18997;SDS011;9632;51.018;4.284;2024-02-26T12:32:58;6.55;;;4.15;;
18997;SDS011;9632;51.018;4.284;2024-02-26T12:35:26;10.98;;;5.00;;
18997;SDS011;9632;51.018;4.284;2024-02-26T12:37:55;9.57;;;5.13;;
18997;SDS011;9632;51.018;4.284;2024-02-26T12:40:21;7.30;;;4.47;;
18997;SDS011;9632;51.018;4.284;2024-02-26T12:42:47;8.93;;;4.93;;
18997;SDS011;9632;51.018;4.284;2024-02-26T12:45:13;8.73;;;5.32;;
18997;SDS011;9632;51.018;4.284;2024-02-26T12:47:44;6.60;;;4.32;;
18997;SDS011;9632;51.018;4.284;2024-02-26T12:50:16;8.63;;;5.15;;
18997;SDS011;9632;51.018;4.284;2024-02-26T12:52:46;8.80;;;4.85;;
18997;SDS011;9632;51.018;4.284;2024-02-26T12:55:19;7.07;;;4.53;;
18997;SDS011;9632;51.018;4.284;2024-02-26T12:57:46;7.55;;;4.40;;
18997;SDS011;9632;51.018;4.284;2024-02-26T13:00:15;7.78;;;4.53;;
18997;SDS011;9632;51.018;4.284;2024-02-26T13:02:43;9.27;;;5.05;;
18997;SDS011;9632;51.018;4.284;2024-02-26T13:05:10;9.60;;;5.00;;
18997;SDS011;9632;51.018;4.284;2024-02-26T13:07:41;9.10;;;4.78;;
18997;SDS011;9632;51.018;4.284;2024-02-26T13:10:08;7.75;;;4.47;;
18997;SDS011;9632;51.018;4.284;2024-02-26T13:12:37;10.85;;;5.78;;
18997;SDS011;9632;51.018;4.284;2024-02-26T13:15:07;9.35;;;5.13;;
18997;SDS011;9632;51.018;4.284;2024-02-26T13:17:38;10.00;;;5.78;;
18997;SDS011;9632;51.018;4.284;2024-02-26T13:20:04;10.25;;;5.30;;
18997;SDS011;9632;51.018;4.284;2024-02-26T13:22:31;8.32;;;4.80;;
18997;SDS011;9632;51.018;4.284;2024-02-26T13:24:59;8.07;;;4.70;;
18997;SDS011;9632;51.018;4.284;2024-02-26T13:27:25;8.65;;;5.25;;
18997;SDS011;9632;51.018;4.284;2024-02-26T13:30:10;8.65;;;5.55;;
18997;SDS011;9632;51.018;4.284;2024-02-26T13:32:38;11.85;;;6.22;;
18997;SDS011;9632;51.018;4.284;2024-02-26T13:35:08;13.05;;;6.35;;
18997;SDS011;9632;51.018;4.284;2024-02-26T13:37:38;9.10;;;5.28;;
18997;SDS011;9632;51.018;4.284;2024-02-26T13:40:08;10.00;;;5.68;;
18997;SDS011;9632;51.018;4.284;2024-02-26T13:42:35;9.90;;;5.65;;
18997;SDS011;9632;51.018;4.284;2024-02-26T13:45:04;9.10;;;5.25;;
18997;SDS011;9632;51.018;4.284;2024-02-26T13:47:36;9.32;;;5.40;;
18997;SDS011;9632;51.018;4.284;2024-02-26T13:50:02;9.80;;;5.20;;
18997;SDS011;9632;51.018;4.284;2024-02-26T13:52:28;8.13;;;4.68;;
18997;SDS011;9632;51.018;4.284;2024-02-26T13:54:59;8.77;;;4.78;;
18997;SDS011;9632;51.018;4.284;2024-02-26T13:57:25;9.00;;;5.25;;
18997;SDS011;9632;51.018;4.284;2024-02-26T13:59:51;10.35;;;5.50;;
18997;SDS011;9632;51.018;4.284;2024-02-26T14:02:16;10.77;;;5.60;;
18997;SDS011;9632;51.018;4.284;2024-02-26T14:04:42;7.82;;;4.50;;
18997;SDS011;9632;51.018;4.284;2024-02-26T14:07:08;9.07;;;4.45;;
18997;SDS011;9632;51.018;4.284;2024-02-26T14:09:36;8.65;;;4.75;;
18997;SDS011;9632;51.018;4.284;2024-02-26T14:12:02;8.63;;;4.70;;
18997;SDS011;9632;51.018;4.284;2024-02-26T14:14:28;8.65;;;4.93;;
18997;SDS011;9632;51.018;4.284;2024-02-26T14:16:57;7.68;;;4.68;;
18997;SDS011;9632;51.018;4.284;2024-02-26T14:19:23;10.15;;;5.18;;
18997;SDS011;9632;51.018;4.284;2024-02-26T14:21:49;6.93;;;4.40;;
18997;SDS011;9632;51.018;4.284;2024-02-26T14:24:20;9.25;;;5.10;;
18997;SDS011;9632;51.018;4.284;2024-02-26T14:26:46;8.02;;;4.32;;
18997;SDS011;9632;51.018;4.284;2024-02-26T14:29:12;7.60;;;4.15;;
18997;SDS011;9632;51.018;4.284;2024-02-26T14:31:41;6.95;;;4.03;;
18997;SDS011;9632;51.018;4.284;2024-02-26T14:34:07;7.85;;;4.45;;
18997;SDS011;9632;51.018;4.284;2024-02-26T14:36:35;8.15;;;4.82;;
18997;SDS011;9632;51.018;4.284;2024-02-26T14:39:01;7.18;;;4.30;;
18997;SDS011;9632;51.018;4.284;2024-02-26T14:41:27;9.50;;;4.60;;
18997;SDS011;9632;51.018;4.284;2024-02-26T14:43:53;7.07;;;3.70;;
18997;SDS011;9632;51.018;4.284;2024-02-26T14:46:18;8.15;;;4.63;;
18997;SDS011;9632;51.018;4.284;2024-02-26T14:48:46;8.20;;;4.25;;
18997;SDS011;9632;51.018;4.284;2024-02-26T14:51:14;8.82;;;4.78;;
18997;SDS011;9632;51.018;4.284;2024-02-26T14:53:43;10.02;;;4.72;;
18997;SDS011;9632;51.018;4.284;2024-02-26T14:56:09;8.63;;;4.80;;
18997;SDS011;9632;51.018;4.284;2024-02-26T14:58:38;8.07;;;4.30;;
18997;SDS011;9632;51.018;4.284;2024-02-26T15:01:04;7.40;;;4.10;;
18997;SDS011;9632;51.018;4.284;2024-02-26T15:03:32;8.93;;;4.07;;
18997;SDS011;9632;51.018;4.284;2024-02-26T15:05:58;9.07;;;4.35;;
18997;SDS011;9632;51.018;4.284;2024-02-26T15:08:26;6.75;;;3.97;;
18997;SDS011;9632;51.018;4.284;2024-02-26T15:10:53;7.18;;;3.30;;
18997;SDS011;9632;51.018;4.284;2024-02-26T15:13:19;8.13;;;3.75;;